Time;durP1;ratioP1;P1;durP2;ratioP2;P2;SDS_P1;SDS_P2;PMS_P1;PMS_P2;Temp;Humidity;BMP_temperature;BMP_pressure;BME280_temperature;BME280_humidity;BME280_pressure;Samples;Min_cycle;Max_cycle;Signal;HPM_P1;HPM_P2
2021/03/23 00:01:53;;;;;;;46.65;30.27;;;;;;;2.79;100.00;99997.50;1848832;77;21163;-86
2021/03/23 00:04:22;;;;;;;47.53;32.90;;;;;;;2.83;100.00;99992.58;1848864;77;21178;-87
2021/03/23 00:06:50;;;;;;;46.55;32.95;;;;;;;2.83;100.00;99995.16;1848800;77;21115;-86
2021/03/23 00:09:19;;;;;;;55.25;33.55;;;;;;;2.79;100.00;100006.49;1848678;77;21347;-87
2021/03/23 00:11:47;;;;;;;53.35;34.43;;;;;;;2.75;100.00;100003.72;1848874;77;21688;-87
2021/03/23 00:14:15;;;;;;;59.55;33.28;;;;;;;2.76;100.00;100004.10;1848985;77;21139;-86
2021/03/23 00:16:45;;;;;;;55.65;32.95;;;;;;;2.76;100.00;99998.96;1848932;77;21182;-86
2021/03/23 00:19:16;;;;;;;49.67;33.83;;;;;;;2.76;100.00;100003.25;1849114;77;22998;-86
2021/03/23 00:21:44;;;;;;;53.90;33.08;;;;;;;2.79;100.00;100006.49;1848752;77;22236;-86
2021/03/23 00:24:12;;;;;;;49.13;32.80;;;;;;;2.80;100.00;100009.45;1848616;77;21135;-86
2021/03/23 00:26:41;;;;;;;49.03;34.60;;;;;;;2.81;100.00;100009.83;1827976;77;21119;-86
2021/03/23 00:29:11;;;;;;;48.98;33.73;;;;;;;2.78;100.00;100009.97;1820280;78;21158;-86
2021/03/23 00:31:39;;;;;;;53.00;33.83;;;;;;;2.72;100.00;100009.48;1818584;78;21131;-87
2021/03/23 00:34:08;;;;;;;63.15;33.48;;;;;;;2.61;100.00;100008.73;1820831;78;21512;-86
2021/03/23 00:36:40;;;;;;;54.65;30.72;;;;;;;2.58;100.00;100012.76;1820558;77;21215;-86
2021/03/23 00:39:11;;;;;;;47.93;28.77;;;;;;;2.58;100.00;100008.91;1820249;78;21164;-86
2021/03/23 00:41:42;;;;;;;45.33;30.53;;;;;;;2.52;100.00;100004.44;1820451;78;21112;-86
2021/03/23 00:44:13;;;;;;;40.30;27.67;;;;;;;2.46;100.00;99999.62;1820374;77;21618;-86
2021/03/23 00:46:41;;;;;;;36.70;27.02;;;;;;;2.36;100.00;99995.88;1820059;78;22285;-85
2021/03/23 00:49:09;;;;;;;42.33;30.08;;;;;;;2.28;100.00;99998.00;1820148;77;21151;-85
2021/03/23 00:51:38;;;;;;;36.20;24.02;;;;;;;2.18;100.00;99998.45;1820327;78;21060;-86
2021/03/23 00:54:06;;;;;;;43.20;31.65;;;;;;;2.07;100.00;100003.28;1820180;78;21457;-86
2021/03/23 00:56:34;;;;;;;37.45;28.55;;;;;;;2.00;100.00;99998.08;1820084;78;21139;-86
2021/03/23 00:59:03;;;;;;;42.27;30.27;;;;;;;1.95;100.00;99998.77;1820310;78;21360;-87
2021/03/23 01:01:31;;;;;;;38.10;28.52;;;;;;;1.89;100.00;99996.04;1820176;78;21091;-86
2021/03/23 01:04:02;;;;;;;41.68;29.72;;;;;;;1.83;100.00;99996.34;1817760;77;21134;-86
2021/03/23 01:06:30;;;;;;;40.55;28.42;;;;;;;1.75;100.00;100001.02;1816136;77;21164;-86
2021/03/23 01:08:58;;;;;;;37.90;28.23;;;;;;;1.72;100.00;99999.44;1814872;79;21180;-85
2021/03/23 01:11:26;;;;;;;34.90;26.65;;;;;;;1.73;100.00;99997.22;1814713;78;22133;-86
2021/03/23 01:13:57;;;;;;;35.60;25.77;;;;;;;1.75;100.00;99991.56;1814745;78;21160;-86
2021/03/23 01:16:25;;;;;;;35.70;26.48;;;;;;;1.75;100.00;99978.73;1814775;78;21506;-86
2021/03/23 01:18:55;;;;;;;38.00;27.87;;;;;;;1.73;100.00;99980.53;1814615;79;21168;-85
2021/03/23 01:21:23;;;;;;;35.75;27.20;;;;;;;1.70;100.00;99984.55;1814726;79;21132;-85
2021/03/23 01:23:53;;;;;;;38.08;27.35;;;;;;;1.66;100.00;99988.16;1814870;79;21368;-86
2021/03/23 01:26:21;;;;;;;34.30;25.40;;;;;;;1.64;100.00;99987.42;1815831;77;21210;-87
2021/03/23 01:28:50;;;;;;;34.03;25.82;;;;;;;1.61;100.00;99992.69;1820118;77;21134;-86
2021/03/23 01:31:19;;;;;;;35.58;26.55;;;;;;;1.57;100.00;99988.97;1820265;78;21100;-86
2021/03/23 01:33:47;;;;;;;36.13;27.60;;;;;;;1.57;100.00;99990.25;1820250;78;21147;-86
2021/03/23 01:36:16;;;;;;;33.85;25.40;;;;;;;1.58;100.00;99988.08;1820407;78;21250;-86
2021/03/23 01:38:44;;;;;;;34.18;26.12;;;;;;;1.58;100.00;99984.22;1820378;78;21182;-86
2021/03/23 01:41:12;;;;;;;38.78;28.47;;;;;;;1.62;100.00;99993.08;1820278;78;21523;-86
2021/03/23 01:43:44;;;;;;;35.08;27.22;;;;;;;1.63;100.00;99988.32;1820456;78;21159;-85
2021/03/23 01:46:40;;;;;;;;;;;;;;;1.64;100.00;99979.72;1822982;78;21234;-85
2021/03/23 01:49:19;;;;;;;30.17;22.80;;;;;;;1.65;100.00;99975.78;1820354;77;21245;-85
2021/03/23 01:51:52;;;;;;;33.35;25.52;;;;;;;1.67;100.00;99982.97;1818043;77;21154;-85
2021/03/23 01:54:24;;;;;;;32.38;25.97;;;;;;;1.63;100.00;99980.16;1820464;77;21132;-85
2021/03/23 01:57:04;;;;;;;33.60;25.62;;;;;;;1.60;100.00;99979.47;1820346;78;21564;-85
2021/03/23 01:59:44;;;;;;;39.90;29.32;;;;;;;1.56;100.00;99981.36;1799210;78;21071;-85
2021/03/23 02:02:13;;;;;;;38.53;29.57;;;;;;;1.49;100.00;99973.58;1816032;78;21370;-85
2021/03/23 02:04:42;;;;;;;35.52;27.05;;;;;;;1.45;100.00;99978.02;1820378;78;21547;-85
2021/03/23 02:07:17;;;;;;;36.20;27.05;;;;;;;1.38;100.00;99982.60;1820393;78;21032;-85
2021/03/23 02:09:46;;;;;;;38.50;28.60;;;;;;;1.34;100.00;99978.53;1816112;78;21129;-85
2021/03/23 02:12:18;;;;;;;37.58;28.07;;;;;;;1.25;100.00;99973.36;1814961;79;21160;-85
2021/03/23 02:14:48;;;;;;;41.60;28.85;;;;;;;1.23;100.00;99979.04;1810549;79;22190;-85
2021/03/23 02:17:32;;;;;;;43.05;31.80;;;;;;;1.18;100.00;99973.27;1814899;78;21529;-85
2021/03/23 02:20:19;;;;;;;48.10;34.23;;;;;;;1.11;100.00;99968.05;1815126;79;21176;-86
2021/03/23 02:22:50;;;;;;;45.90;33.98;;;;;;;1.07;100.00;99970.39;1811308;79;21168;-84
2021/03/23 02:25:23;;;;;;;;;;;;;;;1.02;100.00;99965.47;1817706;79;21160;-84
2021/03/23 02:27:54;;;;;;;41.48;29.20;;;;;;;0.96;100.00;99965.75;1815065;79;21195;-85
2021/03/23 02:34:48;;;;;;;44.10;31.00;;;;;;;0.79;100.00;99967.78;1815119;79;21581;-85
2021/03/23 02:37:17;;;;;;;41.90;30.32;;;;;;;0.65;100.00;99963.26;1818433;78;21119;-84
2021/03/23 02:39:47;;;;;;;46.28;31.12;;;;;;;0.54;100.00;99961.17;1820448;78;21111;-84
2021/03/23 02:42:43;;;;;;;45.12;30.05;;;;;;;0.45;100.00;99961.57;1819998;78;22288;-84
2021/03/23 02:45:15;;;;;;;42.48;31.17;;;;;;;0.35;100.00;99953.92;1820602;78;21116;-85
2021/03/23 02:47:44;;;;;;;38.38;29.10;;;;;;;0.33;100.00;99957.81;1820649;77;21135;-84
2021/03/23 02:50:47;;;;;;;43.73;31.02;;;;;;;0.37;100.00;99956.80;1820676;78;21099;-84
2021/03/23 02:53:50;;;;;;;42.05;29.87;;;;;;;0.37;100.00;99947.83;1820804;78;21139;-85
2021/03/23 02:56:21;;;;;;;43.00;31.23;;;;;;;0.34;100.00;99949.23;1820679;78;21351;-84
2021/03/23 02:58:49;;;;;;;41.65;27.98;;;;;;;0.38;100.00;99939.69;1835712;77;21222;-85
2021/03/23 03:01:52;;;;;;;40.65;30.25;;;;;;;0.37;100.00;99942.70;1848442;77;21142;-84
2021/03/23 03:04:21;;;;;;;41.23;28.95;;;;;;;0.37;100.00;99936.73;1815239;78;21119;-84
2021/03/23 03:06:57;;;;;;;39.53;27.37;;;;;;;0.39;100.00;99933.67;1815269;79;21823;-83
2021/03/23 03:09:26;;;;;;;46.45;31.02;;;;;;;0.42;100.00;99936.11;1815234;79;21358;-84
2021/03/23 03:12:26;;;;;;;43.02;28.77;;;;;;;0.41;100.00;99931.41;1820422;77;21107;-84
2021/03/23 03:14:58;;;;;;;45.38;30.05;;;;;;;0.36;100.00;99927.41;1820684;78;21103;-85
2021/03/23 03:17:29;;;;;;;42.03;29.63;;;;;;;0.29;100.00;99928.94;1846010;77;21130;-84
2021/03/23 03:20:00;;;;;;;45.40;33.58;;;;;;;0.18;100.00;99922.19;1848550;77;21115;-84
2021/03/23 03:25:54;;;;;;;45.35;31.97;;;;;;;0.05;100.00;99923.59;1848162;77;21152;-85
2021/03/23 03:28:27;;;;;;;48.02;32.33;;;;;;;-0.03;100.00;99923.47;1850937;77;21939;-85
2021/03/23 03:31:25;;;;;;;46.92;32.15;;;;;;;-0.03;100.00;99924.75;1837764;78;21647;-85
2021/03/23 03:34:24;;;;;;;45.12;31.07;;;;;;;-0.09;100.00;99925.02;1837811;78;21409;-85
2021/03/23 03:36:54;;;;;;;48.98;31.52;;;;;;;-0.18;100.00;99928.80;1837787;78;21428;-84
2021/03/23 03:39:29;;;;;;;45.78;30.62;;;;;;;-0.23;100.00;99928.59;1833129;77;21095;-84
2021/03/23 03:42:00;;;;;;;45.20;30.70;;;;;;;-0.26;100.00;99929.99;1777022;80;21556;-85
2021/03/23 03:45:00;;;;;;;44.85;30.82;;;;;;;-0.29;100.00;99931.41;1776788;80;21133;-85
2021/03/23 03:47:56;;;;;;;43.98;30.62;;;;;;;-0.29;100.00;99926.30;1776748;80;21145;-84
2021/03/23 03:50:29;;;;;;;48.52;31.45;;;;;;;-0.30;100.00;99929.75;1755530;81;22300;-85
2021/03/23 03:53:25;;;;;;;47.53;30.92;;;;;;;-0.29;100.00;99930.95;1777063;80;21121;-84
2021/03/23 03:55:54;;;;;;;50.25;32.83;;;;;;;-0.27;100.00;99933.02;1776838;80;21105;-85
2021/03/23 03:58:57;;;;;;;49.70;31.42;;;;;;;-0.26;100.00;99926.16;1776463;80;22005;-85
2021/03/23 04:01:29;;;;;;;47.65;32.23;;;;;;;-0.27;100.00;99934.29;1776967;80;21212;-85
2021/03/23 04:04:02;;;;;;;50.52;31.27;;;;;;;-0.27;100.00;99936.00;1776728;80;21518;-85
2021/03/23 04:06:34;;;;;;;48.92;31.00;;;;;;;-0.27;100.00;99939.84;1775265;80;21525;-85
2021/03/23 04:09:03;;;;;;;45.60;29.95;;;;;;;-0.28;100.00;99935.18;1776748;80;21148;-85
2021/03/23 04:11:32;;;;;;;47.95;30.92;;;;;;;-0.29;100.00;99940.37;1776938;80;21199;-85
2021/03/23 04:14:01;;;;;;;46.77;30.23;;;;;;;-0.30;100.00;99944.64;1777095;80;21118;-85
2021/03/23 04:16:30;;;;;;;43.83;29.18;;;;;;;-0.32;100.00;99938.74;1776882;80;21365;-85
2021/03/23 04:18:59;;;;;;;44.18;28.50;;;;;;;-0.34;100.00;99950.33;1776974;80;21145;-85
2021/03/23 04:21:29;;;;;;;40.43;27.87;;;;;;;-0.34;100.00;99945.21;1777111;80;21530;-85
2021/03/23 04:24:00;;;;;;;41.45;29.52;;;;;;;-0.34;100.00;99954.17;1776939;80;21181;-85
2021/03/23 04:26:28;;;;;;;38.90;26.95;;;;;;;-0.36;100.00;99959.78;1776541;80;21073;-87
2021/03/23 04:29:04;;;;;;;41.88;26.90;;;;;;;-0.37;100.00;99961.14;1769699;80;22379;-85
2021/03/23 04:31:43;;;;;;;38.73;27.45;;;;;;;-0.38;100.00;99960.75;1772491;79;21762;-85
2021/03/23 04:34:14;;;;;;;39.90;26.30;;;;;;;-0.41;100.00;99964.73;1836958;77;21032;-85
2021/03/23 04:36:44;;;;;;;37.73;25.92;;;;;;;-0.43;100.00;99970.34;1841584;77;21480;-86
2021/03/23 04:39:13;;;;;;;38.75;24.40;;;;;;;-0.45;100.00;99969.13;1848490;77;21115;-86
2021/03/23 04:41:42;;;;;;;41.05;27.75;;;;;;;-0.48;100.00;99973.90;1848493;77;21358;-85
2021/03/23 04:44:11;;;;;;;42.17;26.80;;;;;;;-0.49;100.00;99977.80;1848779;77;21107;-85
2021/03/23 04:50:07;;;;;;;39.00;26.02;;;;;;;-0.50;100.00;99982.10;1837242;78;21163;-85
2021/03/23 04:52:37;;;;;;;39.73;25.08;;;;;;;-0.48;100.00;99991.80;1837631;78;21135;-85
2021/03/23 04:55:08;;;;;;;40.88;25.15;;;;;;;-0.48;100.00;99999.48;1837805;78;22332;-86
2021/03/23 04:57:36;;;;;;;40.65;25.45;;;;;;;-0.48;100.00;99998.20;1837641;78;21124;-85
2021/03/23 05:08:24;;;;;;;35.78;22.70;;;;;;;-0.50;100.00;100013.23;1838049;78;21152;-87
2021/03/23 05:15:17;;;;;;;30.68;19.70;;;;;;;-0.44;100.00;100023.67;1823882;77;21140;-89
2021/03/23 05:22:11;;;;;;;41.42;23.38;;;;;;;-0.40;100.00;100031.62;1840745;77;21159;-85
2021/03/23 05:32:54;;;;;;;43.48;26.68;;;;;;;-0.39;100.00;100036.68;1835570;77;21135;-86
2021/03/23 05:39:46;;;;;;;35.38;21.87;;;;;;;-0.37;100.00;100045.14;1832244;77;21127;-89
2021/03/23 05:46:40;;;;;;;28.00;14.87;;;;;;;-0.34;100.00;100037.78;1820538;78;21131;-88
2021/03/23 05:53:58;;;;;;;27.67;13.93;;;;;;;-0.34;100.00;100052.67;1842315;77;21107;-85
2021/03/23 05:56:29;;;;;;;39.90;22.07;;;;;;;-0.34;100.00;100051.39;1818116;77;21155;-90
2021/03/23 06:07:01;;;;;;;32.58;19.92;;;;;;;-0.26;100.00;100052.39;1819329;77;21159;-87
2021/03/23 06:14:05;;;;;;;33.30;21.80;;;;;;;-0.15;100.00;100059.64;1848858;77;20234;-86
2021/03/23 06:25:24;;;;;;;32.08;22.20;;;;;;;0.07;100.00;100066.02;1815458;79;21033;-86
2021/03/23 06:35:42;;;;;;;32.25;20.92;;;;;;;0.37;100.00;100084.02;1813948;78;21556;-86
2021/03/23 06:46:59;;;;;;;30.70;20.82;;;;;;;0.36;100.00;100083.20;1809957;78;21139;-86
2021/03/23 06:53:51;;;;;;;29.42;16.37;;;;;;;0.31;100.00;100085.95;1791973;80;21465;-89
2021/03/23 07:00:42;;;;;;;28.75;17.80;;;;;;;0.36;100.00;100092.63;1803395;78;21552;-88
2021/03/23 07:07:40;;;;;;;30.52;17.12;;;;;;;0.43;100.00;100088.45;1802916;78;21176;-88
2021/03/23 07:14:38;;;;;;;26.52;13.50;;;;;;;0.61;100.00;100099.66;1815730;78;21094;-88
2021/03/23 07:25:40;;;;;;;23.30;15.90;;;;;;;0.45;100.00;100112.72;1798622;79;21156;-88
2021/03/23 07:35:51;;;;;;;18.27;10.03;;;;;;;0.55;100.00;100108.89;1813450;78;21127;-89
2021/03/23 07:38:40;;;;;;;21.10;14.35;;;;;;;0.63;100.00;100115.81;1815790;78;21101;-88
2021/03/23 07:53:48;;;;;;;18.17;12.50;;;;;;;0.70;100.00;100104.02;1831409;78;21433;-88
2021/03/23 08:01:21;;;;;;;19.40;11.57;;;;;;;0.78;100.00;100110.50;1831444;78;21549;-88
2021/03/23 08:12:33;;;;;;;10.82;6.47;;;;;;;1.21;100.00;100108.23;1831402;78;21156;-89
2021/03/23 08:24:05;;;;;;;19.85;7.53;;;;;;;1.52;100.00;100101.28;1831630;78;21592;-89
2021/03/23 08:27:07;;;;;;;10.08;6.12;;;;;;;1.67;100.00;100092.06;1782649;78;22316;-90
2021/03/23 08:30:18;;;;;;;10.98;5.42;;;;;;;1.82;100.00;100089.21;1828301;78;21100;-89
2021/03/23 08:33:36;;;;;;;7.95;4.65;;;;;;;2.01;100.00;100085.78;1831534;78;21136;-89
2021/03/23 08:36:36;;;;;;;3.47;2.30;;;;;;;2.17;100.00;100081.56;1831531;78;21560;-89
2021/03/23 08:42:59;;;;;;;3.50;1.72;;;;;;;2.15;100.00;100098.78;1799028;79;22337;-90
2021/03/23 08:46:04;;;;;;;2.40;1.70;;;;;;;2.00;100.00;100096.95;1798831;79;21136;-89
2021/03/23 08:52:59;;;;;;;3.45;2.33;;;;;;;1.89;100.00;100107.27;1791448;79;21145;-89
2021/03/23 09:06:55;;;;;;;5.58;3.33;;;;;;;2.30;100.00;100093.80;1704192;82;21156;-88
2021/03/23 09:20:50;;;;;;;11.68;1.60;;;;;;;3.00;100.00;100075.27;1772444;81;21551;-89
2021/03/23 09:27:56;;;;;;;1.98;1.47;;;;;;;2.45;100.00;100085.33;1772483;80;21067;-89
2021/03/23 09:36:53;;;;;;;4.00;1.42;;;;;;;2.18;85.11;100067.81;1780742;80;21535;-89
2021/03/23 09:40:05;;;;;;;4.37;2.25;;;;;;;2.89;87.19;100085.27;1782084;80;21552;-89
2021/03/23 09:50:30;;;;;;;1.90;1.00;;;;;;;3.03;67.05;100091.47;1776326;80;21155;-89
2021/03/23 10:01:20;;;;;;;;;;;;;;;2.70;68.99;100096.95;1740787;82;21200;-90
2021/03/23 10:03:52;;;;;;;3.12;1.42;;;;;;;2.45;69.33;100098.18;1747581;80;20802;-86
2021/03/23 10:06:26;;;;;;;1.37;1.10;;;;;;;2.39;69.31;100107.95;1747513;79;21200;-84
2021/03/23 10:09:01;;;;;;;2.58;1.15;;;;;;;2.33;64.63;100108.61;1778337;80;21378;-84
2021/03/23 10:11:45;;;;;;;3.55;1.32;;;;;;;2.38;70.17;100100.68;1777024;80;21169;-84
2021/03/23 10:14:38;;;;;;;3.33;1.22;;;;;;;2.41;67.93;100094.12;1736799;82;21175;-84
2021/03/23 10:17:24;;;;;;;1.45;1.30;;;;;;;2.45;66.71;100089.66;1776719;80;21149;-84
2021/03/23 10:19:57;;;;;;;1.70;1.17;;;;;;;2.57;69.32;100090.78;1773712;80;21727;-83
2021/03/23 10:22:37;;;;;;;1.72;1.20;;;;;;;2.77;70.04;100086.73;1777086;80;22149;-84
2021/03/23 10:25:16;;;;;;;2.50;1.35;;;;;;;2.96;64.04;100080.22;1737273;82;21191;-83
2021/03/23 10:27:44;;;;;;;2.15;1.27;;;;;;;3.07;63.27;100072.38;1771767;80;21113;-84
2021/03/23 10:30:36;;;;;;;3.85;2.50;;;;;;;3.12;72.27;100071.70;1777009;80;21125;-83
2021/03/23 10:33:22;;;;;;;3.02;1.35;;;;;;;3.18;61.86;100072.66;1744003;80;21263;-84
2021/03/23 10:36:01;;;;;;;5.58;1.42;;;;;;;3.21;56.84;100076.33;1730331;82;21412;-84
2021/03/23 10:38:38;;;;;;;2.83;1.52;;;;;;;3.28;57.91;100063.98;1730466;81;21180;-84
2021/03/23 10:41:24;;;;;;;3.15;1.62;;;;;;;3.32;50.10;100065.48;1730564;81;21160;-84
2021/03/23 10:44:14;;;;;;;5.58;1.70;;;;;;;3.31;54.28;100067.69;1730481;81;21078;-83
2021/03/23 10:46:45;;;;;;;8.38;1.92;;;;;;;3.32;51.61;100070.64;1730458;81;21611;-84
2021/03/23 10:49:32;;;;;;;9.30;2.55;;;;;;;3.27;50.99;100067.02;1730532;81;21261;-84
2021/03/23 10:52:06;;;;;;;17.32;3.15;;;;;;;3.24;51.79;100074.08;1730403;81;21133;-84
2021/03/23 10:54:38;;;;;;;1.32;0.80;;;;;;;3.12;52.89;100091.81;1720869;82;21141;-84
2021/03/23 10:57:32;;;;;;;2.90;0.93;;;;;;;2.98;53.01;100074.52;1730430;81;21132;-84
2021/03/23 11:00:30;;;;;;;1.55;0.93;;;;;;;2.92;53.67;100074.02;1691493;83;21502;-83
2021/03/23 11:03:27;;;;;;;2.83;1.32;;;;;;;2.83;54.27;100077.45;1695442;83;21447;-84
2021/03/23 11:05:58;;;;;;;2.22;0.90;;;;;;;2.87;57.77;100074.26;1699854;82;21096;-83
2021/03/23 11:08:27;;;;;;;1.75;0.82;;;;;;;2.98;55.51;100074.98;1695492;83;21601;-83
2021/03/23 11:10:58;;;;;;;3.00;1.10;;;;;;;2.98;55.03;100078.84;1730524;82;21600;-83
2021/03/23 11:13:27;;;;;;;1.22;1.10;;;;;;;3.03;53.72;100074.74;1730549;82;21141;-84
2021/03/23 11:16:03;;;;;;;2.20;1.10;;;;;;;3.07;52.87;100070.65;1761853;80;21154;-84
2021/03/23 11:18:36;;;;;;;2.12;1.32;;;;;;;3.05;54.50;100071.17;1759785;80;21621;-83
2021/03/23 11:21:11;;;;;;;2.20;1.10;;;;;;;3.00;62.21;100061.59;1748019;80;21162;-85
2021/03/23 11:23:44;;;;;;;4.05;1.40;;;;;;;2.87;60.30;100075.55;1751283;80;21129;-85
2021/03/23 11:26:23;;;;;;;1.80;1.50;;;;;;;2.67;59.11;100061.95;1757048;79;21459;-85
2021/03/23 11:28:54;;;;;;;4.40;1.40;;;;;;;2.53;58.77;100069.07;1766176;80;22390;-85
2021/03/23 11:31:26;;;;;;;2.87;1.30;;;;;;;2.43;59.43;100067.89;1752880;80;21153;-84
2021/03/23 11:33:56;;;;;;;1.67;1.30;;;;;;;2.43;62.09;100053.77;1782463;79;21448;-85
2021/03/23 11:36:26;;;;;;;2.35;1.32;;;;;;;2.51;62.56;100065.77;1806415;79;21151;-85
2021/03/23 11:38:56;;;;;;;6.05;1.92;;;;;;;2.61;65.85;100053.71;1799255;79;21143;-85
2021/03/23 11:41:29;;;;;;;4.20;1.77;;;;;;;2.75;68.02;100055.15;1806278;79;21260;-85
2021/03/23 11:44:08;;;;;;;6.20;2.00;;;;;;;2.95;71.11;100067.41;1805785;79;21580;-86
2021/03/23 11:47:02;;;;;;;3.85;1.82;;;;;;;3.03;68.88;100049.02;1790935;79;21185;-85
2021/03/23 11:50:05;;;;;;;4.45;1.60;;;;;;;2.98;66.50;100043.64;1783173;79;21169;-86
2021/03/23 11:52:36;;;;;;;2.87;1.42;;;;;;;2.93;65.11;100052.07;1789432;79;21654;-85
2021/03/23 11:55:08;;;;;;;2.70;1.30;;;;;;;2.78;61.84;100049.83;1782128;79;21510;-85
2021/03/23 11:57:39;;;;;;;4.83;1.50;;;;;;;2.61;59.92;100057.13;1782670;79;21171;-86
2021/03/23 12:00:12;;;;;;;2.67;1.67;;;;;;;2.50;65.66;100048.69;1783866;79;21131;-84
2021/03/23 12:02:41;;;;;;;1.60;1.30;;;;;;;2.51;65.07;100050.34;1774204;79;21071;-85
2021/03/23 12:05:13;;;;;;;3.10;1.70;;;;;;;2.55;64.39;100051.02;1809230;79;21151;-85
2021/03/23 12:08:05;;;;;;;1.65;1.17;;;;;;;2.52;62.68;100040.89;1797081;79;21439;-85
2021/03/23 12:11:10;;;;;;;3.15;1.67;;;;;;;2.45;59.25;100043.39;1796700;79;21079;-86
2021/03/23 12:14:09;;;;;;;2.75;1.87;;;;;;;2.35;61.86;100037.89;1774383;80;21162;-85
2021/03/23 12:16:53;;;;;;;3.77;1.67;;;;;;;2.24;61.05;100050.00;1774162;80;21218;-84
2021/03/23 12:19:28;;;;;;;2.25;1.32;;;;;;;2.12;61.75;100056.56;1774539;80;21115;-84
2021/03/23 12:21:58;;;;;;;3.58;1.80;;;;;;;2.06;63.67;100047.85;1767519;80;21211;-85
2021/03/23 12:24:27;;;;;;;3.90;1.40;;;;;;;2.06;65.23;100054.27;1774536;80;21162;-84
2021/03/23 12:26:56;;;;;;;2.35;1.10;;;;;;;2.05;59.95;100055.17;1774398;80;21198;-84
2021/03/23 12:29:25;;;;;;;3.77;0.90;;;;;;;2.02;58.30;100061.77;1774618;80;21154;-85
2021/03/23 12:31:54;;;;;;;2.75;1.60;;;;;;;1.95;57.07;100042.42;1774622;80;21147;-85
2021/03/23 12:34:23;;;;;;;4.95;1.75;;;;;;;1.95;57.99;100050.13;1776872;80;21608;-84
2021/03/23 12:36:51;;;;;;;2.55;1.60;;;;;;;1.95;57.17;100052.23;1776956;80;21096;-84
2021/03/23 12:39:21;;;;;;;2.15;1.40;;;;;;;1.95;58.01;100044.52;1777048;80;21181;-85
2021/03/23 12:41:49;;;;;;;2.55;1.50;;;;;;;1.98;58.68;100050.81;1777063;80;21084;-84
2021/03/23 12:44:19;;;;;;;2.12;1.47;;;;;;;1.99;56.47;100062.75;1792399;79;21127;-84
2021/03/23 12:46:48;;;;;;;3.07;1.60;;;;;;;1.97;61.00;100069.69;1778694;79;21368;-84
2021/03/23 12:49:16;;;;;;;2.52;1.82;;;;;;;1.91;63.54;100070.42;1778206;79;21115;-84
2021/03/23 12:51:49;;;;;;;5.87;3.10;;;;;;;1.83;66.08;100069.05;1808874;79;21144;-84
2021/03/23 12:54:34;;;;;;;5.05;2.12;;;;;;;1.80;70.21;100073.06;1782193;79;21171;-84
2021/03/23 12:57:21;;;;;;;2.58;1.70;;;;;;;1.79;71.74;100073.12;1778560;80;21115;-84
2021/03/23 12:59:53;;;;;;;4.35;2.33;;;;;;;1.76;71.22;100065.58;1784866;79;21367;-85
2021/03/23 13:02:25;;;;;;;4.60;1.80;;;;;;;1.74;74.09;100077.19;1784910;79;21099;-85
2021/03/23 13:04:56;;;;;;;2.22;1.82;;;;;;;1.73;70.61;100078.08;1785054;80;21111;-84
2021/03/23 13:07:40;;;;;;;2.87;1.85;;;;;;;1.69;69.20;100071.44;1755019;80;21649;-85
2021/03/23 13:10:39;;;;;;;4.80;1.85;;;;;;;1.67;71.91;100089.92;1777077;80;21103;-85
2021/03/23 13:13:23;;;;;;;3.25;1.92;;;;;;;1.65;76.82;100087.44;1773077;80;21591;-85
2021/03/23 13:15:52;;;;;;;4.05;1.70;;;;;;;1.62;77.92;100102.16;1754298;79;21170;-85
2021/03/23 13:18:25;;;;;;;2.98;1.55;;;;;;;1.54;78.58;100100.77;1783900;79;21175;-84
2021/03/23 13:20:58;;;;;;;3.15;1.60;;;;;;;1.48;78.18;100100.21;1724952;82;21198;-85
2021/03/23 13:23:56;;;;;;;2.42;1.87;;;;;;;1.43;76.66;100101.70;1788879;79;21136;-85
2021/03/23 13:26:29;;;;;;;4.97;2.02;;;;;;;1.38;77.11;100099.80;1786275;79;21159;-85
2021/03/23 13:29:08;;;;;;;3.05;1.60;;;;;;;1.34;76.54;100093.12;1780084;79;21117;-85
2021/03/23 13:31:42;;;;;;;2.12;1.45;;;;;;;1.33;76.28;100101.72;1803222;79;21136;-85
2021/03/23 13:34:23;;;;;;;3.12;1.77;;;;;;;1.33;73.79;100098.72;1798626;79;21166;-84
2021/03/23 13:36:56;;;;;;;2.50;1.52;;;;;;;1.31;75.99;100088.98;1785297;80;21536;-85
2021/03/23 13:39:29;;;;;;;2.85;1.77;;;;;;;1.35;74.06;100094.80;1785219;80;22264;-84
2021/03/23 13:42:15;;;;;;;4.17;1.98;;;;;;;1.37;74.56;100110.50;1765520;79;21170;-85
2021/03/23 13:45:01;;;;;;;3.25;1.70;;;;;;;1.37;74.30;100104.55;1778429;80;21143;-85
2021/03/23 13:47:29;;;;;;;3.12;1.57;;;;;;;1.37;72.33;100110.97;1783570;80;21200;-85
2021/03/23 13:49:58;;;;;;;5.70;2.62;;;;;;;1.36;71.79;100114.42;1785043;80;21151;-84
2021/03/23 13:52:32;;;;;;;6.53;3.52;;;;;;;1.37;72.10;100118.20;1779526;79;21379;-84
2021/03/23 13:55:17;;;;;;;4.75;2.90;;;;;;;1.39;72.02;100119.43;1775550;79;21073;-84
2021/03/23 13:57:45;;;;;;;5.37;2.80;;;;;;;1.38;71.91;100117.77;1771715;79;21143;-85
2021/03/23 14:00:18;;;;;;;2.85;1.95;;;;;;;1.37;74.60;100112.25;1801314;79;21156;-84
2021/03/23 14:02:48;;;;;;;3.12;1.55;;;;;;;1.37;75.36;100112.25;1798337;79;21151;-85
2021/03/23 14:05:16;;;;;;;4.80;1.60;;;;;;;1.38;76.54;100110.06;1809016;78;21201;-84
2021/03/23 14:07:49;;;;;;;2.47;1.85;;;;;;;1.37;74.96;100109.22;1808799;79;21333;-84
2021/03/23 14:10:24;;;;;;;4.97;2.55;;;;;;;1.35;76.20;100108.48;1808936;78;21151;-84
2021/03/23 14:12:56;;;;;;;10.98;3.08;;;;;;;1.34;78.18;100109.80;1808906;78;22007;-84
2021/03/23 14:15:34;;;;;;;4.50;2.12;;;;;;;1.34;78.15;100113.66;1804130;79;21167;-84
2021/03/23 14:18:06;;;;;;;5.20;2.67;;;;;;;1.32;77.76;100115.48;1716838;82;21163;-84
2021/03/23 14:20:36;;;;;;;2.52;1.77;;;;;;;1.31;80.48;100118.48;1808817;79;21187;-84
2021/03/23 14:23:16;;;;;;;3.58;2.17;;;;;;;1.31;78.62;100116.38;1778068;79;21187;-84
2021/03/23 14:25:51;;;;;;;7.37;3.02;;;;;;;1.31;81.74;100115.09;1783029;79;21145;-83
2021/03/23 14:28:33;;;;;;;10.10;4.95;;;;;;;1.36;82.16;100115.70;1784029;79;21146;-83
2021/03/23 14:31:04;;;;;;;4.10;2.08;;;;;;;1.36;82.98;100115.25;1746067;81;22138;-83
2021/03/23 14:33:34;;;;;;;3.30;1.95;;;;;;;1.35;81.86;100112.76;1791695;79;21128;-84
2021/03/23 14:36:04;;;;;;;3.22;2.02;;;;;;;1.34;82.20;100109.80;1778864;79;21164;-83
2021/03/23 14:38:36;;;;;;;3.60;2.20;;;;;;;1.33;82.29;100110.27;1748868;79;21461;-83
2021/03/23 14:41:10;;;;;;;5.05;2.17;;;;;;;1.30;85.46;100110.39;1737904;79;21151;-83
2021/03/23 14:43:38;;;;;;;10.63;3.33;;;;;;;1.27;91.96;100107.98;1766573;79;21161;-83
2021/03/23 14:46:22;;;;;;;4.10;2.20;;;;;;;1.21;97.23;100116.78;1786025;79;21179;-83
2021/03/23 14:48:51;;;;;;;3.95;2.87;;;;;;;1.18;98.95;100123.31;1770402;79;21161;-83
2021/03/23 14:51:21;;;;;;;3.10;2.52;;;;;;;1.13;100.00;100118.00;1772518;80;21235;-83
2021/03/23 14:53:52;;;;;;;;;;;;;;;1.08;100.00;100119.51;1768741;80;21165;-84
2021/03/23 14:56:33;;;;;;;4.87;2.52;;;;;;;1.06;100.00;100131.55;1776140;79;21297;-83
2021/03/23 14:59:03;;;;;;;3.98;2.50;;;;;;;1.03;100.00;100125.27;1758801;79;21135;-84
2021/03/23 15:01:31;;;;;;;4.05;2.27;;;;;;;0.98;96.42;100122.90;1756453;79;21141;-84
2021/03/23 15:03:59;;;;;;;4.83;1.95;;;;;;;0.97;95.00;100130.66;1766205;80;21149;-84
2021/03/23 15:06:29;;;;;;;5.65;2.83;;;;;;;0.97;90.38;100132.77;1768487;80;21116;-83
2021/03/23 15:09:03;;;;;;;5.70;2.42;;;;;;;1.00;93.05;100128.80;1768132;79;22295;-85
2021/03/23 15:11:35;;;;;;;4.72;2.87;;;;;;;1.01;94.61;100129.19;1767944;78;21216;-84
2021/03/23 15:14:06;;;;;;;4.47;2.50;;;;;;;1.00;93.84;100128.80;1775078;78;21059;-84
2021/03/23 15:16:34;;;;;;;6.80;3.80;;;;;;;0.97;93.33;100138.36;1770392;78;21221;-84
2021/03/23 15:19:05;;;;;;;7.22;3.10;;;;;;;0.92;90.36;100129.11;1766768;78;21193;-84
2021/03/23 15:21:40;;;;;;;7.58;3.15;;;;;;;0.90;90.12;100133.92;1770749;78;22286;-83
2021/03/23 15:24:13;;;;;;;5.58;2.65;;;;;;;0.85;88.45;100140.53;1760957;79;21169;-84
2021/03/23 15:26:41;;;;;;;4.95;2.92;;;;;;;0.83;89.78;100149.19;1760164;80;21143;-84
2021/03/23 15:29:21;;;;;;;5.42;2.80;;;;;;;0.81;90.67;100159.95;1765699;79;22225;-83
2021/03/23 15:31:50;;;;;;;5.70;2.90;;;;;;;0.78;92.35;100154.08;1771590;79;21119;-84
2021/03/23 15:34:20;;;;;;;4.67;2.80;;;;;;;0.76;93.02;100164.83;1781932;78;21395;-84
2021/03/23 15:36:52;;;;;;;6.28;2.72;;;;;;;0.73;93.43;100166.23;1729045;81;21598;-83